sensor_id;sensor_type;location;lat;lon;timestamp;P1;durP1;ratioP1;P2;durP2;ratioP2
80836;SDS011;70251;60.008;30.404;2023-10-08T00:00:26;0.00;;;0.00;;
80836;SDS011;70251;60.008;30.404;2023-10-08T00:03:10;0.20;;;0.00;;
80836;SDS011;70251;60.008;30.404;2023-10-08T00:05:37;0.25;;;0.00;;
80836;SDS011;70251;60.008;30.404;2023-10-08T00:08:03;0.00;;;0.00;;
80836;SDS011;70251;60.008;30.404;2023-10-08T00:10:36;0.00;;;0.00;;
80836;SDS011;70251;60.008;30.404;2023-10-08T00:13:09;0.00;;;0.00;;
80836;SDS011;70251;60.008;30.404;2023-10-08T00:15:41;0.00;;;0.00;;
80836;SDS011;70251;60.008;30.404;2023-10-08T00:18:21;0.03;;;0.00;;
80836;SDS011;70251;60.008;30.404;2023-10-08T00:20:49;0.15;;;0.00;;
80836;SDS011;70251;60.008;30.404;2023-10-08T00:23:23;0.00;;;0.00;;
80836;SDS011;70251;60.008;30.404;2023-10-08T00:25:54;0.00;;;0.00;;
80836;SDS011;70251;60.008;30.404;2023-10-08T00:28:23;0.00;;;0.00;;
80836;SDS011;70251;60.008;30.404;2023-10-08T00:30:49;0.05;;;0.00;;
80836;SDS011;70251;60.008;30.404;2023-10-08T00:33:18;0.00;;;0.00;;
80836;SDS011;70251;60.008;30.404;2023-10-08T00:35:44;0.10;;;0.00;;
80836;SDS011;70251;60.008;30.404;2023-10-08T00:38:12;0.00;;;0.00;;
80836;SDS011;70251;60.008;30.404;2023-10-08T00:40:42;0.20;;;0.00;;
80836;SDS011;70251;60.008;30.404;2023-10-08T00:43:32;0.00;;;0.00;;
80836;SDS011;70251;60.008;30.404;2023-10-08T00:46:03;0.00;;;0.00;;
80836;SDS011;70251;60.008;30.404;2023-10-08T00:48:31;0.20;;;0.00;;
80836;SDS011;70251;60.008;30.404;2023-10-08T00:51:03;0.00;;;0.00;;
80836;SDS011;70251;60.008;30.404;2023-10-08T00:53:54;0.00;;;0.00;;
80836;SDS011;70251;60.008;30.404;2023-10-08T00:56:31;0.00;;;0.00;;
80836;SDS011;70251;60.008;30.404;2023-10-08T00:59:14;0.05;;;0.00;;
80836;SDS011;70251;60.008;30.404;2023-10-08T01:01:47;0.00;;;0.00;;
80836;SDS011;70251;60.008;30.404;2023-10-08T01:04:20;0.08;;;0.00;;
80836;SDS011;70251;60.008;30.404;2023-10-08T01:06:57;0.00;;;0.00;;
80836;SDS011;70251;60.008;30.404;2023-10-08T01:09:42;0.10;;;0.00;;
80836;SDS011;70251;60.008;30.404;2023-10-08T01:12:23;0.00;;;0.00;;
80836;SDS011;70251;60.008;30.404;2023-10-08T01:14:58;0.15;;;0.00;;
80836;SDS011;70251;60.008;30.404;2023-10-08T01:17:32;0.00;;;0.00;;
80836;SDS011;70251;60.008;30.404;2023-10-08T01:20:08;0.30;;;0.00;;
80836;SDS011;70251;60.008;30.404;2023-10-08T01:22:46;0.10;;;0.00;;
80836;SDS011;70251;60.008;30.404;2023-10-08T01:25:12;0.20;;;0.00;;
80836;SDS011;70251;60.008;30.404;2023-10-08T01:27:46;0.25;;;0.00;;
80836;SDS011;70251;60.008;30.404;2023-10-08T01:30:12;0.00;;;0.00;;
80836;SDS011;70251;60.008;30.404;2023-10-08T01:32:44;0.30;;;0.00;;
80836;SDS011;70251;60.008;30.404;2023-10-08T01:35:10;0.17;;;0.00;;
80836;SDS011;70251;60.008;30.404;2023-10-08T01:37:51;0.20;;;0.00;;
80836;SDS011;70251;60.008;30.404;2023-10-08T01:40:22;0.10;;;0.00;;
80836;SDS011;70251;60.008;30.404;2023-10-08T01:42:51;0.00;;;0.00;;
80836;SDS011;70251;60.008;30.404;2023-10-08T01:45:17;0.22;;;0.00;;
80836;SDS011;70251;60.008;30.404;2023-10-08T01:47:44;0.00;;;0.00;;
80836;SDS011;70251;60.008;30.404;2023-10-08T01:50:10;0.08;;;0.00;;
80836;SDS011;70251;60.008;30.404;2023-10-08T01:53:08;0.00;;;0.00;;
80836;SDS011;70251;60.008;30.404;2023-10-08T01:55:35;0.00;;;0.00;;
80836;SDS011;70251;60.008;30.404;2023-10-08T01:58:14;0.38;;;0.00;;
80836;SDS011;70251;60.008;30.404;2023-10-08T02:00:44;0.40;;;0.00;;
80836;SDS011;70251;60.008;30.404;2023-10-08T02:03:14;0.00;;;0.00;;
80836;SDS011;70251;60.008;30.404;2023-10-08T02:05:47;0.30;;;0.00;;
80836;SDS011;70251;60.008;30.404;2023-10-08T02:08:15;0.43;;;0.00;;
80836;SDS011;70251;60.008;30.404;2023-10-08T02:10:43;0.00;;;0.00;;
80836;SDS011;70251;60.008;30.404;2023-10-08T02:13:12;0.27;;;0.00;;
80836;SDS011;70251;60.008;30.404;2023-10-08T02:15:49;0.00;;;0.00;;
80836;SDS011;70251;60.008;30.404;2023-10-08T02:18:19;0.00;;;0.00;;
80836;SDS011;70251;60.008;30.404;2023-10-08T02:20:45;0.73;;;0.00;;
80836;SDS011;70251;60.008;30.404;2023-10-08T02:23:11;0.00;;;0.00;;
80836;SDS011;70251;60.008;30.404;2023-10-08T02:25:40;1.02;;;0.00;;
80836;SDS011;70251;60.008;30.404;2023-10-08T02:28:07;0.05;;;0.00;;
80836;SDS011;70251;60.008;30.404;2023-10-08T02:30:42;0.00;;;0.00;;
80836;SDS011;70251;60.008;30.404;2023-10-08T02:33:08;0.10;;;0.00;;
80836;SDS011;70251;60.008;30.404;2023-10-08T02:35:42;0.17;;;0.00;;
80836;SDS011;70251;60.008;30.404;2023-10-08T02:38:12;0.00;;;0.00;;
80836;SDS011;70251;60.008;30.404;2023-10-08T02:40:41;0.00;;;0.00;;
80836;SDS011;70251;60.008;30.404;2023-10-08T02:43:13;0.10;;;0.00;;
80836;SDS011;70251;60.008;30.404;2023-10-08T02:45:43;0.00;;;0.00;;
80836;SDS011;70251;60.008;30.404;2023-10-08T02:48:14;0.05;;;0.00;;
80836;SDS011;70251;60.008;30.404;2023-10-08T02:50:41;0.17;;;0.00;;
80836;SDS011;70251;60.008;30.404;2023-10-08T02:53:09;0.00;;;0.00;;
80836;SDS011;70251;60.008;30.404;2023-10-08T02:55:40;0.00;;;0.00;;
80836;SDS011;70251;60.008;30.404;2023-10-08T02:58:10;0.10;;;0.00;;
80836;SDS011;70251;60.008;30.404;2023-10-08T03:00:44;0.17;;;0.00;;
80836;SDS011;70251;60.008;30.404;2023-10-08T03:03:14;0.00;;;0.00;;
80836;SDS011;70251;60.008;30.404;2023-10-08T03:05:43;0.17;;;0.00;;
80836;SDS011;70251;60.008;30.404;2023-10-08T03:08:13;0.22;;;0.00;;
80836;SDS011;70251;60.008;30.404;2023-10-08T03:10:47;0.00;;;0.00;;
80836;SDS011;70251;60.008;30.404;2023-10-08T03:13:28;0.00;;;0.00;;
80836;SDS011;70251;60.008;30.404;2023-10-08T03:15:54;0.50;;;0.00;;
80836;SDS011;70251;60.008;30.404;2023-10-08T03:18:34;0.00;;;0.00;;
80836;SDS011;70251;60.008;30.404;2023-10-08T03:21:07;0.10;;;0.00;;
80836;SDS011;70251;60.008;30.404;2023-10-08T03:23:46;0.10;;;0.00;;
80836;SDS011;70251;60.008;30.404;2023-10-08T03:26:23;0.13;;;0.00;;
80836;SDS011;70251;60.008;30.404;2023-10-08T03:29:04;0.00;;;0.00;;
80836;SDS011;70251;60.008;30.404;2023-10-08T03:31:33;0.40;;;0.00;;
80836;SDS011;70251;60.008;30.404;2023-10-08T03:34:19;0.00;;;0.00;;
80836;SDS011;70251;60.008;30.404;2023-10-08T03:36:46;0.10;;;0.00;;
80836;SDS011;70251;60.008;30.404;2023-10-08T03:39:14;0.75;;;0.30;;
80836;SDS011;70251;60.008;30.404;2023-10-08T03:41:41;0.00;;;0.00;;
80836;SDS011;70251;60.008;30.404;2023-10-08T03:44:08;0.00;;;0.00;;
80836;SDS011;70251;60.008;30.404;2023-10-08T03:46:42;0.00;;;0.00;;
80836;SDS011;70251;60.008;30.404;2023-10-08T03:49:11;0.27;;;0.00;;
80836;SDS011;70251;60.008;30.404;2023-10-08T03:51:51;0.88;;;0.00;;
80836;SDS011;70251;60.008;30.404;2023-10-08T03:54:23;0.20;;;0.00;;
80836;SDS011;70251;60.008;30.404;2023-10-08T03:56:56;0.22;;;0.00;;
80836;SDS011;70251;60.008;30.404;2023-10-08T03:59:23;0.10;;;0.00;;
80836;SDS011;70251;60.008;30.404;2023-10-08T04:01:56;0.00;;;0.00;;
80836;SDS011;70251;60.008;30.404;2023-10-08T04:04:47;0.65;;;0.00;;
80836;SDS011;70251;60.008;30.404;2023-10-08T04:07:23;0.10;;;0.00;;
80836;SDS011;70251;60.008;30.404;2023-10-08T04:09:59;0.00;;;0.00;;
80836;SDS011;70251;60.008;30.404;2023-10-08T04:12:35;0.00;;;0.00;;
80836;SDS011;70251;60.008;30.404;2023-10-08T04:15:05;0.20;;;0.00;;
80836;SDS011;70251;60.008;30.404;2023-10-08T04:17:35;0.20;;;0.00;;
80836;SDS011;70251;60.008;30.404;2023-10-08T04:20:16;0.00;;;0.00;;
80836;SDS011;70251;60.008;30.404;2023-10-08T04:23:09;0.30;;;0.00;;
80836;SDS011;70251;60.008;30.404;2023-10-08T04:25:46;0.03;;;0.00;;
80836;SDS011;70251;60.008;30.404;2023-10-08T04:28:19;0.03;;;0.00;;
80836;SDS011;70251;60.008;30.404;2023-10-08T04:30:46;0.30;;;0.00;;
80836;SDS011;70251;60.008;30.404;2023-10-08T04:33:16;0.10;;;0.00;;
80836;SDS011;70251;60.008;30.404;2023-10-08T04:35:42;0.45;;;0.00;;
80836;SDS011;70251;60.008;30.404;2023-10-08T04:38:22;0.10;;;0.00;;
80836;SDS011;70251;60.008;30.404;2023-10-08T04:40:50;0.00;;;0.00;;
80836;SDS011;70251;60.008;30.404;2023-10-08T04:43:17;0.30;;;0.00;;
80836;SDS011;70251;60.008;30.404;2023-10-08T04:45:57;0.10;;;0.00;;
80836;SDS011;70251;60.008;30.404;2023-10-08T04:48:24;0.10;;;0.00;;
80836;SDS011;70251;60.008;30.404;2023-10-08T04:50:57;0.23;;;0.00;;
80836;SDS011;70251;60.008;30.404;2023-10-08T04:53:28;0.22;;;0.00;;
80836;SDS011;70251;60.008;30.404;2023-10-08T04:56:04;0.45;;;0.03;;
80836;SDS011;70251;60.008;30.404;2023-10-08T04:58:44;0.35;;;0.00;;
80836;SDS011;70251;60.008;30.404;2023-10-08T05:01:18;0.65;;;0.00;;
80836;SDS011;70251;60.008;30.404;2023-10-08T05:03:47;0.53;;;0.00;;
80836;SDS011;70251;60.008;30.404;2023-10-08T05:06:27;0.15;;;0.00;;
80836;SDS011;70251;60.008;30.404;2023-10-08T05:09:06;0.10;;;0.00;;
80836;SDS011;70251;60.008;30.404;2023-10-08T05:11:45;0.10;;;0.00;;
80836;SDS011;70251;60.008;30.404;2023-10-08T05:14:32;0.13;;;0.00;;
80836;SDS011;70251;60.008;30.404;2023-10-08T05:16:59;0.23;;;0.00;;
80836;SDS011;70251;60.008;30.404;2023-10-08T05:19:29;0.00;;;0.00;;
80836;SDS011;70251;60.008;30.404;2023-10-08T05:22:21;0.43;;;0.00;;
80836;SDS011;70251;60.008;30.404;2023-10-08T05:24:53;0.10;;;0.00;;
80836;SDS011;70251;60.008;30.404;2023-10-08T05:27:35;0.30;;;0.00;;
80836;SDS011;70251;60.008;30.404;2023-10-08T05:30:20;0.63;;;0.00;;
80836;SDS011;70251;60.008;30.404;2023-10-08T05:33:15;0.60;;;0.00;;
80836;SDS011;70251;60.008;30.404;2023-10-08T05:35:41;1.00;;;0.00;;
80836;SDS011;70251;60.008;30.404;2023-10-08T05:38:09;0.43;;;0.00;;
80836;SDS011;70251;60.008;30.404;2023-10-08T05:40:43;0.35;;;0.00;;
80836;SDS011;70251;60.008;30.404;2023-10-08T05:43:33;0.10;;;0.00;;
80836;SDS011;70251;60.008;30.404;2023-10-08T05:46:07;0.40;;;0.00;;
80836;SDS011;70251;60.008;30.404;2023-10-08T05:48:50;0.00;;;0.00;;
80836;SDS011;70251;60.008;30.404;2023-10-08T05:51:41;0.00;;;0.00;;
80836;SDS011;70251;60.008;30.404;2023-10-08T05:57:08;0.10;;;0.00;;
80836;SDS011;70251;60.008;30.404;2023-10-08T05:59:38;0.10;;;0.00;;
80836;SDS011;70251;60.008;30.404;2023-10-08T06:02:20;0.10;;;0.00;;
80836;SDS011;70251;60.008;30.404;2023-10-08T06:04:52;0.17;;;0.00;;
80836;SDS011;70251;60.008;30.404;2023-10-08T06:07:36;0.30;;;0.00;;
80836;SDS011;70251;60.008;30.404;2023-10-08T06:10:17;0.20;;;0.00;;
80836;SDS011;70251;60.008;30.404;2023-10-08T06:15:47;2.75;;;0.30;;
80836;SDS011;70251;60.008;30.404;2023-10-08T06:18:15;0.93;;;0.00;;
80836;SDS011;70251;60.008;30.404;2023-10-08T06:20:43;1.15;;;0.10;;
80836;SDS011;70251;60.008;30.404;2023-10-08T06:23:12;0.55;;;0.00;;
80836;SDS011;70251;60.008;30.404;2023-10-08T06:25:41;0.60;;;0.00;;
80836;SDS011;70251;60.008;30.404;2023-10-08T06:28:17;0.40;;;0.00;;
80836;SDS011;70251;60.008;30.404;2023-10-08T06:30:47;0.93;;;0.20;;
80836;SDS011;70251;60.008;30.404;2023-10-08T06:33:14;1.85;;;0.43;;
80836;SDS011;70251;60.008;30.404;2023-10-08T06:35:59;0.57;;;0.00;;
80836;SDS011;70251;60.008;30.404;2023-10-08T06:38:31;0.38;;;0.00;;
80836;SDS011;70251;60.008;30.404;2023-10-08T06:41:02;0.98;;;0.08;;
80836;SDS011;70251;60.008;30.404;2023-10-08T06:43:36;0.50;;;0.00;;
80836;SDS011;70251;60.008;30.404;2023-10-08T06:46:05;1.65;;;0.10;;
80836;SDS011;70251;60.008;30.404;2023-10-08T06:48:38;0.68;;;0.00;;
80836;SDS011;70251;60.008;30.404;2023-10-08T06:51:10;0.55;;;0.00;;
80836;SDS011;70251;60.008;30.404;2023-10-08T06:53:41;0.50;;;0.00;;
80836;SDS011;70251;60.008;30.404;2023-10-08T06:56:10;1.37;;;0.10;;
80836;SDS011;70251;60.008;30.404;2023-10-08T06:58:38;1.23;;;0.10;;
80836;SDS011;70251;60.008;30.404;2023-10-08T07:01:04;1.63;;;0.10;;
80836;SDS011;70251;60.008;30.404;2023-10-08T07:03:34;0.73;;;0.10;;
80836;SDS011;70251;60.008;30.404;2023-10-08T07:06:03;1.88;;;0.10;;
80836;SDS011;70251;60.008;30.404;2023-10-08T07:08:43;4.30;;;0.10;;
80836;SDS011;70251;60.008;30.404;2023-10-08T07:11:13;2.30;;;0.25;;
80836;SDS011;70251;60.008;30.404;2023-10-08T07:13:39;2.42;;;0.20;;
80836;SDS011;70251;60.008;30.404;2023-10-08T07:16:08;1.73;;;0.10;;
80836;SDS011;70251;60.008;30.404;2023-10-08T07:18:39;0.77;;;0.00;;
80836;SDS011;70251;60.008;30.404;2023-10-08T07:21:07;3.30;;;0.30;;
80836;SDS011;70251;60.008;30.404;2023-10-08T07:23:39;1.75;;;0.20;;
80836;SDS011;70251;60.008;30.404;2023-10-08T07:26:22;1.88;;;0.38;;
80836;SDS011;70251;60.008;30.404;2023-10-08T07:29:02;3.92;;;0.13;;
80836;SDS011;70251;60.008;30.404;2023-10-08T07:31:34;1.75;;;0.10;;
80836;SDS011;70251;60.008;30.404;2023-10-08T07:34:06;1.87;;;0.10;;
80836;SDS011;70251;60.008;30.404;2023-10-08T07:36:46;1.30;;;0.10;;
80836;SDS011;70251;60.008;30.404;2023-10-08T07:39:17;0.73;;;0.10;;
80836;SDS011;70251;60.008;30.404;2023-10-08T07:42:06;0.80;;;0.10;;
80836;SDS011;70251;60.008;30.404;2023-10-08T07:44:33;1.08;;;0.10;;
80836;SDS011;70251;60.008;30.404;2023-10-08T07:47:12;5.83;;;1.73;;
80836;SDS011;70251;60.008;30.404;2023-10-08T07:49:43;2.08;;;0.20;;
80836;SDS011;70251;60.008;30.404;2023-10-08T07:52:21;1.33;;;0.10;;
80836;SDS011;70251;60.008;30.404;2023-10-08T07:54:47;0.68;;;0.10;;
80836;SDS011;70251;60.008;30.404;2023-10-08T07:57:13;0.47;;;0.00;;
80836;SDS011;70251;60.008;30.404;2023-10-08T07:59:42;1.75;;;0.10;;
80836;SDS011;70251;60.008;30.404;2023-10-08T08:02:30;1.15;;;0.10;;
80836;SDS011;70251;60.008;30.404;2023-10-08T08:04:56;1.55;;;0.00;;
80836;SDS011;70251;60.008;30.404;2023-10-08T08:07:22;0.70;;;0.00;;
80836;SDS011;70251;60.008;30.404;2023-10-08T08:09:59;0.70;;;0.10;;
80836;SDS011;70251;60.008;30.404;2023-10-08T08:12:27;0.82;;;0.10;;
80836;SDS011;70251;60.008;30.404;2023-10-08T08:14:54;2.65;;;0.10;;
80836;SDS011;70251;60.008;30.404;2023-10-08T08:17:23;1.27;;;0.20;;
80836;SDS011;70251;60.008;30.404;2023-10-08T08:19:50;1.13;;;0.10;;
80836;SDS011;70251;60.008;30.404;2023-10-08T08:22:20;0.30;;;0.00;;
80836;SDS011;70251;60.008;30.404;2023-10-08T08:24:51;0.68;;;0.00;;
80836;SDS011;70251;60.008;30.404;2023-10-08T08:27:44;0.68;;;0.13;;
80836;SDS011;70251;60.008;30.404;2023-10-08T08:30:14;1.33;;;0.10;;
80836;SDS011;70251;60.008;30.404;2023-10-08T08:32:44;0.93;;;0.10;;
80836;SDS011;70251;60.008;30.404;2023-10-08T08:35:13;1.90;;;0.03;;
80836;SDS011;70251;60.008;30.404;2023-10-08T08:37:43;0.75;;;0.00;;
80836;SDS011;70251;60.008;30.404;2023-10-08T08:43:04;6.07;;;1.33;;
80836;SDS011;70251;60.008;30.404;2023-10-08T08:45:48;5.97;;;1.40;;
80836;SDS011;70251;60.008;30.404;2023-10-08T08:48:15;4.53;;;0.90;;
80836;SDS011;70251;60.008;30.404;2023-10-08T08:50:45;2.45;;;0.20;;
80836;SDS011;70251;60.008;30.404;2023-10-08T08:53:13;2.55;;;0.30;;
80836;SDS011;70251;60.008;30.404;2023-10-08T08:55:43;1.98;;;0.28;;
80836;SDS011;70251;60.008;30.404;2023-10-08T08:58:09;2.80;;;0.13;;
80836;SDS011;70251;60.008;30.404;2023-10-08T09:00:36;1.20;;;0.10;;
80836;SDS011;70251;60.008;30.404;2023-10-08T09:03:03;2.28;;;0.30;;
80836;SDS011;70251;60.008;30.404;2023-10-08T09:05:33;0.68;;;0.10;;
80836;SDS011;70251;60.008;30.404;2023-10-08T09:08:01;1.52;;;0.10;;
80836;SDS011;70251;60.008;30.404;2023-10-08T09:10:29;0.97;;;0.27;;
80836;SDS011;70251;60.008;30.404;2023-10-08T09:13:02;2.63;;;0.30;;
80836;SDS011;70251;60.008;30.404;2023-10-08T09:15:30;3.78;;;0.70;;
80836;SDS011;70251;60.008;30.404;2023-10-08T09:17:58;2.00;;;0.30;;
80836;SDS011;70251;60.008;30.404;2023-10-08T09:20:30;2.45;;;0.15;;
80836;SDS011;70251;60.008;30.404;2023-10-08T09:23:07;4.73;;;0.20;;
80836;SDS011;70251;60.008;30.404;2023-10-08T09:25:40;1.13;;;0.03;;
80836;SDS011;70251;60.008;30.404;2023-10-08T09:28:38;1.02;;;0.10;;
80836;SDS011;70251;60.008;30.404;2023-10-08T09:31:17;1.02;;;0.00;;
80836;SDS011;70251;60.008;30.404;2023-10-08T09:33:43;0.30;;;0.00;;
80836;SDS011;70251;60.008;30.404;2023-10-08T09:36:19;2.87;;;0.37;;
80836;SDS011;70251;60.008;30.404;2023-10-08T09:38:50;1.73;;;0.10;;
80836;SDS011;70251;60.008;30.404;2023-10-08T09:41:17;0.70;;;0.00;;
80836;SDS011;70251;60.008;30.404;2023-10-08T09:43:44;1.98;;;0.10;;
80836;SDS011;70251;60.008;30.404;2023-10-08T09:46:19;2.08;;;0.10;;
80836;SDS011;70251;60.008;30.404;2023-10-08T09:48:49;1.03;;;0.10;;
80836;SDS011;70251;60.008;30.404;2023-10-08T09:51:23;1.15;;;0.10;;
80836;SDS011;70251;60.008;30.404;2023-10-08T09:54:09;2.75;;;0.13;;
80836;SDS011;70251;60.008;30.404;2023-10-08T09:56:53;2.25;;;0.30;;
80836;SDS011;70251;60.008;30.404;2023-10-08T09:59:22;1.90;;;0.10;;
80836;SDS011;70251;60.008;30.404;2023-10-08T10:05:13;2.13;;;0.10;;
80836;SDS011;70251;60.008;30.404;2023-10-08T10:07:49;2.25;;;0.30;;
80836;SDS011;70251;60.008;30.404;2023-10-08T10:10:27;2.65;;;0.10;;
80836;SDS011;70251;60.008;30.404;2023-10-08T10:12:58;1.17;;;0.10;;
80836;SDS011;70251;60.008;30.404;2023-10-08T10:15:25;1.00;;;0.10;;
80836;SDS011;70251;60.008;30.404;2023-10-08T10:17:50;2.20;;;0.17;;
80836;SDS011;70251;60.008;30.404;2023-10-08T10:20:21;1.60;;;0.17;;
80836;SDS011;70251;60.008;30.404;2023-10-08T10:22:47;3.07;;;0.10;;
80836;SDS011;70251;60.008;30.404;2023-10-08T10:25:15;1.55;;;0.20;;
80836;SDS011;70251;60.008;30.404;2023-10-08T10:30:27;1.42;;;0.10;;
80836;SDS011;70251;60.008;30.404;2023-10-08T10:32:53;1.67;;;0.10;;
80836;SDS011;70251;60.008;30.404;2023-10-08T10:35:19;1.98;;;0.20;;
80836;SDS011;70251;60.008;30.404;2023-10-08T10:37:46;3.45;;;0.30;;
80836;SDS011;70251;60.008;30.404;2023-10-08T10:40:22;7.13;;;1.80;;
80836;SDS011;70251;60.008;30.404;2023-10-08T10:42:58;4.28;;;0.50;;
80836;SDS011;70251;60.008;30.404;2023-10-08T10:45:28;2.97;;;0.43;;
80836;SDS011;70251;60.008;30.404;2023-10-08T10:48:01;5.00;;;0.73;;
80836;SDS011;70251;60.008;30.404;2023-10-08T10:50:41;3.72;;;0.40;;
80836;SDS011;70251;60.008;30.404;2023-10-08T10:53:20;4.80;;;0.70;;
80836;SDS011;70251;60.008;30.404;2023-10-08T10:55:46;2.72;;;0.40;;
80836;SDS011;70251;60.008;30.404;2023-10-08T10:58:26;4.77;;;0.40;;
80836;SDS011;70251;60.008;30.404;2023-10-08T11:00:53;4.07;;;0.55;;
80836;SDS011;70251;60.008;30.404;2023-10-08T11:03:26;2.65;;;0.40;;
80836;SDS011;70251;60.008;30.404;2023-10-08T11:05:57;4.90;;;0.35;;
80836;SDS011;70251;60.008;30.404;2023-10-08T11:08:25;2.03;;;0.20;;
80836;SDS011;70251;60.008;30.404;2023-10-08T11:10:52;2.73;;;0.30;;
80836;SDS011;70251;60.008;30.404;2023-10-08T11:13:24;2.78;;;0.20;;
80836;SDS011;70251;60.008;30.404;2023-10-08T11:15:54;3.35;;;0.73;;
80836;SDS011;70251;60.008;30.404;2023-10-08T11:18:23;6.20;;;1.48;;
80836;SDS011;70251;60.008;30.404;2023-10-08T11:20:50;5.32;;;1.35;;
80836;SDS011;70251;60.008;30.404;2023-10-08T11:23:30;4.50;;;0.60;;
80836;SDS011;70251;60.008;30.404;2023-10-08T11:26:01;2.53;;;0.30;;
80836;SDS011;70251;60.008;30.404;2023-10-08T11:28:30;4.25;;;0.60;;
80836;SDS011;70251;60.008;30.404;2023-10-08T11:31:03;2.95;;;0.40;;
80836;SDS011;70251;60.008;30.404;2023-10-08T11:33:44;3.65;;;0.40;;
80836;SDS011;70251;60.008;30.404;2023-10-08T11:36:32;2.93;;;0.47;;
80836;SDS011;70251;60.008;30.404;2023-10-08T11:39:08;2.72;;;0.30;;
80836;SDS011;70251;60.008;30.404;2023-10-08T11:41:37;2.45;;;0.30;;
80836;SDS011;70251;60.008;30.404;2023-10-08T11:44:17;5.60;;;0.90;;
80836;SDS011;70251;60.008;30.404;2023-10-08T11:46:48;5.43;;;0.77;;
80836;SDS011;70251;60.008;30.404;2023-10-08T11:49:17;10.00;;;2.80;;
80836;SDS011;70251;60.008;30.404;2023-10-08T11:51:44;7.78;;;1.80;;
80836;SDS011;70251;60.008;30.404;2023-10-08T11:54:13;5.10;;;1.00;;
80836;SDS011;70251;60.008;30.404;2023-10-08T11:56:40;5.90;;;1.33;;
80836;SDS011;70251;60.008;30.404;2023-10-08T11:59:06;5.47;;;0.90;;
80836;SDS011;70251;60.008;30.404;2023-10-08T12:01:35;6.07;;;0.40;;
80836;SDS011;70251;60.008;30.404;2023-10-08T12:04:03;2.80;;;0.40;;
80836;SDS011;70251;60.008;30.404;2023-10-08T12:06:30;3.47;;;0.40;;
80836;SDS011;70251;60.008;30.404;2023-10-08T12:08:59;2.22;;;0.20;;
80836;SDS011;70251;60.008;30.404;2023-10-08T12:11:25;4.40;;;0.87;;
80836;SDS011;70251;60.008;30.404;2023-10-08T12:13:58;2.15;;;0.35;;
80836;SDS011;70251;60.008;30.404;2023-10-08T12:16:25;2.20;;;0.20;;
80836;SDS011;70251;60.008;30.404;2023-10-08T12:18:55;1.65;;;0.20;;
80836;SDS011;70251;60.008;30.404;2023-10-08T12:21:30;2.97;;;0.30;;
80836;SDS011;70251;60.008;30.404;2023-10-08T12:23:59;2.47;;;0.20;;
80836;SDS011;70251;60.008;30.404;2023-10-08T12:26:30;4.20;;;0.70;;
80836;SDS011;70251;60.008;30.404;2023-10-08T12:28:56;3.53;;;0.40;;
80836;SDS011;70251;60.008;30.404;2023-10-08T12:31:22;2.60;;;0.30;;
80836;SDS011;70251;60.008;30.404;2023-10-08T12:33:52;3.13;;;0.97;;
80836;SDS011;70251;60.008;30.404;2023-10-08T12:36:28;3.28;;;0.30;;
80836;SDS011;70251;60.008;30.404;2023-10-08T12:38:58;2.45;;;0.20;;
80836;SDS011;70251;60.008;30.404;2023-10-08T12:41:24;2.35;;;0.30;;
80836;SDS011;70251;60.008;30.404;2023-10-08T12:43:53;5.03;;;0.83;;
80836;SDS011;70251;60.008;30.404;2023-10-08T12:46:21;5.68;;;0.50;;
80836;SDS011;70251;60.008;30.404;2023-10-08T12:48:51;2.72;;;0.20;;
80836;SDS011;70251;60.008;30.404;2023-10-08T12:51:28;3.85;;;0.50;;
80836;SDS011;70251;60.008;30.404;2023-10-08T12:53:59;2.67;;;0.20;;
80836;SDS011;70251;60.008;30.404;2023-10-08T12:56:37;2.97;;;0.40;;
80836;SDS011;70251;60.008;30.404;2023-10-08T12:59:14;2.75;;;0.30;;
80836;SDS011;70251;60.008;30.404;2023-10-08T13:01:56;3.13;;;0.30;;
80836;SDS011;70251;60.008;30.404;2023-10-08T13:04:26;5.25;;;0.75;;
80836;SDS011;70251;60.008;30.404;2023-10-08T13:07:00;2.53;;;0.30;;
80836;SDS011;70251;60.008;30.404;2023-10-08T13:09:30;2.47;;;0.30;;
80836;SDS011;70251;60.008;30.404;2023-10-08T13:11:57;1.55;;;0.20;;
80836;SDS011;70251;60.008;30.404;2023-10-08T13:14:26;4.22;;;0.40;;
80836;SDS011;70251;60.008;30.404;2023-10-08T13:16:53;3.38;;;0.20;;
80836;SDS011;70251;60.008;30.404;2023-10-08T13:19:26;2.27;;;0.30;;
80836;SDS011;70251;60.008;30.404;2023-10-08T13:21:53;4.32;;;0.68;;
80836;SDS011;70251;60.008;30.404;2023-10-08T13:24:19;5.10;;;1.08;;
80836;SDS011;70251;60.008;30.404;2023-10-08T13:26:45;4.90;;;1.00;;
80836;SDS011;70251;60.008;30.404;2023-10-08T13:29:15;2.97;;;0.60;;
80836;SDS011;70251;60.008;30.404;2023-10-08T13:31:44;4.57;;;0.67;;
80836;SDS011;70251;60.008;30.404;2023-10-08T13:34:20;6.68;;;0.95;;
80836;SDS011;70251;60.008;30.404;2023-10-08T13:36:46;6.10;;;0.88;;
80836;SDS011;70251;60.008;30.404;2023-10-08T13:39:14;5.53;;;1.10;;
80836;SDS011;70251;60.008;30.404;2023-10-08T13:41:46;7.10;;;2.10;;
80836;SDS011;70251;60.008;30.404;2023-10-08T13:44:17;6.23;;;1.03;;
80836;SDS011;70251;60.008;30.404;2023-10-08T13:46:51;8.98;;;2.08;;
80836;SDS011;70251;60.008;30.404;2023-10-08T13:49:22;8.15;;;2.17;;
80836;SDS011;70251;60.008;30.404;2023-10-08T13:51:52;5.18;;;1.30;;
80836;SDS011;70251;60.008;30.404;2023-10-08T13:54:25;7.88;;;0.70;;
80836;SDS011;70251;60.008;30.404;2023-10-08T13:56:55;4.73;;;0.93;;
80836;SDS011;70251;60.008;30.404;2023-10-08T13:59:21;4.20;;;0.52;;
80836;SDS011;70251;60.008;30.404;2023-10-08T14:01:50;4.57;;;0.60;;
80836;SDS011;70251;60.008;30.404;2023-10-08T14:04:20;9.27;;;2.47;;
80836;SDS011;70251;60.008;30.404;2023-10-08T14:06:51;5.00;;;0.82;;
80836;SDS011;70251;60.008;30.404;2023-10-08T14:09:18;8.53;;;1.93;;
80836;SDS011;70251;60.008;30.404;2023-10-08T14:11:56;7.53;;;1.58;;
80836;SDS011;70251;60.008;30.404;2023-10-08T14:14:23;6.47;;;1.10;;
80836;SDS011;70251;60.008;30.404;2023-10-08T14:16:55;5.80;;;0.88;;
80836;SDS011;70251;60.008;30.404;2023-10-08T14:19:25;4.53;;;0.80;;
80836;SDS011;70251;60.008;30.404;2023-10-08T14:22:06;6.07;;;0.90;;
80836;SDS011;70251;60.008;30.404;2023-10-08T14:24:34;4.30;;;0.98;;
80836;SDS011;70251;60.008;30.404;2023-10-08T14:27:04;6.45;;;0.90;;
80836;SDS011;70251;60.008;30.404;2023-10-08T14:29:40;3.38;;;0.60;;
80836;SDS011;70251;60.008;30.404;2023-10-08T14:32:18;5.88;;;0.73;;
80836;SDS011;70251;60.008;30.404;2023-10-08T14:34:49;4.87;;;0.77;;
80836;SDS011;70251;60.008;30.404;2023-10-08T14:37:18;5.57;;;0.98;;
80836;SDS011;70251;60.008;30.404;2023-10-08T14:40:02;4.68;;;0.80;;
80836;SDS011;70251;60.008;30.404;2023-10-08T14:42:46;4.15;;;0.52;;
80836;SDS011;70251;60.008;30.404;2023-10-08T14:45:23;6.40;;;0.75;;
80836;SDS011;70251;60.008;30.404;2023-10-08T14:47:55;2.63;;;0.40;;
80836;SDS011;70251;60.008;30.404;2023-10-08T14:50:21;5.90;;;1.00;;
80836;SDS011;70251;60.008;30.404;2023-10-08T14:52:48;5.15;;;0.65;;
80836;SDS011;70251;60.008;30.404;2023-10-08T14:55:15;5.35;;;0.70;;
80836;SDS011;70251;60.008;30.404;2023-10-08T14:57:48;4.70;;;0.68;;
80836;SDS011;70251;60.008;30.404;2023-10-08T15:00:21;6.20;;;0.40;;
80836;SDS011;70251;60.008;30.404;2023-10-08T15:02:52;4.68;;;0.60;;
80836;SDS011;70251;60.008;30.404;2023-10-08T15:05:21;4.90;;;0.73;;
80836;SDS011;70251;60.008;30.404;2023-10-08T15:07:51;6.43;;;1.20;;
80836;SDS011;70251;60.008;30.404;2023-10-08T15:10:18;6.20;;;0.88;;
80836;SDS011;70251;60.008;30.404;2023-10-08T15:12:45;10.13;;;1.70;;
80836;SDS011;70251;60.008;30.404;2023-10-08T15:15:14;3.88;;;0.50;;
80836;SDS011;70251;60.008;30.404;2023-10-08T15:17:44;4.28;;;0.80;;